createdAt,value
2023-03-31T00:01:12.876Z,11.50
2023-03-31T00:03:43.955Z,11.50
2023-03-31T00:06:18.141Z,11.50
2023-03-31T00:08:47.288Z,11.50
2023-03-31T00:11:14.616Z,11.50
2023-03-31T00:13:41.971Z,11.60
2023-03-31T00:16:10.623Z,11.60
2023-03-31T00:18:40.912Z,11.60
2023-03-31T00:21:14.955Z,11.60
2023-03-31T00:23:42.522Z,11.50
2023-03-31T00:26:09.913Z,11.60
2023-03-31T00:28:37.332Z,11.50
2023-03-31T00:31:04.805Z,11.60
2023-03-31T00:33:32.238Z,11.60
2023-03-31T00:36:02.116Z,11.60
2023-03-31T00:38:30.708Z,11.60
2023-03-31T00:40:59.599Z,11.50
2023-03-31T00:43:32.348Z,11.60
2023-03-31T00:46:15.459Z,11.60
2023-03-31T00:48:51.590Z,11.50
2023-03-31T00:51:21.497Z,11.50
2023-03-31T00:53:59.785Z,11.50
2023-03-31T00:56:32.023Z,11.50
2023-03-31T00:59:03.731Z,11.50
2023-03-31T01:01:31.824Z,11.50
2023-03-31T01:03:59.626Z,11.40
2023-03-31T01:06:30.970Z,11.40
2023-03-31T01:08:59.986Z,11.40
2023-03-31T01:11:28.238Z,11.40
2023-03-31T01:13:57.627Z,11.40
2023-03-31T01:16:25.004Z,11.40
2023-03-31T01:18:57.533Z,11.40
2023-03-31T01:21:47.311Z,11.50
2023-03-31T01:24:24.199Z,11.40
2023-03-31T01:27:23.896Z,11.40
2023-03-31T01:30:06.070Z,11.40
2023-03-31T01:32:58.194Z,11.30
2023-03-31T01:35:31.213Z,11.20
2023-03-31T01:38:42.558Z,11.20
2023-03-31T01:41:19.013Z,11.30
2023-03-31T01:44:09.190Z,11.30
2023-03-31T01:46:49.477Z,11.30
2023-03-31T01:49:25.541Z,11.30
2023-03-31T01:52:11.572Z,11.20
2023-03-31T01:55:11.303Z,11.20
2023-03-31T01:57:49.424Z,11.20
2023-03-31T02:00:24.041Z,11.30
2023-03-31T02:02:59.748Z,11.30
2023-03-31T02:05:33.904Z,11.30
2023-03-31T02:08:10.998Z,11.20
2023-03-31T02:10:40.877Z,11.20
2023-03-31T02:13:11.039Z,11.20
2023-03-31T02:15:46.293Z,11.10
2023-03-31T02:18:17.248Z,11.00
2023-03-31T02:20:49.092Z,11.00
2023-03-31T02:23:20.016Z,11.00
2023-03-31T02:26:01.171Z,10.90
2023-03-31T02:28:29.892Z,10.90
2023-03-31T02:31:34.966Z,10.90
2023-03-31T02:34:04.095Z,10.80
2023-03-31T02:36:34.716Z,10.80
2023-03-31T02:39:09.770Z,10.80
2023-03-31T02:41:37.554Z,10.80
2023-03-31T02:44:04.985Z,10.80
2023-03-31T02:46:32.892Z,10.80
2023-03-31T02:49:04.557Z,10.80
2023-03-31T02:52:17.130Z,10.80
2023-03-31T02:55:03.567Z,10.80
2023-03-31T02:57:55.986Z,10.90
2023-03-31T03:01:02.138Z,11.00
2023-03-31T03:04:17.343Z,11.00
2023-03-31T03:06:53.831Z,11.10
2023-03-31T03:09:35.898Z,11.10
2023-03-31T03:12:06.699Z,11.10
2023-03-31T03:14:55.403Z,11.20
2023-03-31T03:17:40.659Z,11.20
2023-03-31T03:20:09.836Z,11.30
2023-03-31T03:22:39.205Z,11.20
2023-03-31T03:25:12.854Z,11.30
2023-03-31T03:27:40.602Z,11.20
2023-03-31T03:30:10.608Z,11.20
2023-03-31T03:32:38.381Z,11.10
2023-03-31T03:35:06.918Z,11.10
2023-03-31T03:37:35.409Z,11.10
2023-03-31T03:40:05.836Z,11.10
2023-03-31T03:42:34.372Z,11.10
2023-03-31T03:45:01.943Z,11.10
2023-03-31T03:47:29.463Z,11.10
2023-03-31T03:49:57.016Z,11.20
2023-03-31T03:52:24.388Z,11.20
2023-03-31T03:54:51.797Z,11.20
2023-03-31T03:57:19.214Z,11.20
2023-03-31T03:59:46.640Z,11.20
2023-03-31T04:02:14.500Z,11.20
2023-03-31T04:04:41.986Z,11.20
2023-03-31T04:07:09.359Z,11.10
2023-03-31T04:09:36.846Z,11.10
2023-03-31T04:12:04.586Z,11.10
2023-03-31T04:14:31.946Z,11.10
2023-03-31T04:16:59.345Z,11.20
2023-03-31T04:19:27.575Z,11.10
2023-03-31T04:21:58.888Z,11.10
2023-03-31T04:24:33.144Z,11.10
2023-03-31T04:27:01.277Z,11.20
2023-03-31T04:29:28.653Z,11.20
2023-03-31T04:31:59.967Z,11.30
2023-03-31T04:34:35.067Z,11.30
2023-03-31T04:37:03.576Z,11.30
2023-03-31T04:39:34.615Z,11.40
2023-03-31T04:42:02.204Z,11.40
2023-03-31T04:44:29.783Z,11.40
2023-03-31T04:46:58.855Z,11.40
2023-03-31T04:49:26.286Z,11.40
2023-03-31T04:51:53.725Z,11.40
2023-03-31T04:54:21.218Z,11.40
2023-03-31T04:56:48.658Z,11.40
2023-03-31T04:59:16.222Z,11.40
2023-03-31T05:01:45.719Z,11.30
2023-03-31T05:04:13.368Z,11.40
2023-03-31T05:06:41.129Z,11.30
2023-03-31T05:09:09.802Z,11.30
2023-03-31T05:11:38.327Z,11.20
2023-03-31T05:14:05.931Z,11.30
2023-03-31T05:16:33.719Z,11.30
2023-03-31T05:19:01.115Z,11.30
2023-03-31T05:21:30.565Z,11.40
2023-03-31T05:23:58.171Z,11.40
2023-03-31T05:26:26.500Z,11.40
2023-03-31T05:28:54.479Z,11.40
2023-03-31T05:31:22.150Z,11.40
2023-03-31T05:33:49.723Z,11.40
2023-03-31T05:36:18.133Z,11.40
2023-03-31T05:38:46.029Z,11.40
2023-03-31T05:41:13.431Z,11.40
2023-03-31T05:43:40.888Z,11.30
2023-03-31T05:46:08.690Z,11.30
2023-03-31T05:48:37.937Z,11.40
2023-03-31T05:51:06.089Z,11.40
2023-03-31T05:53:34.176Z,11.40
2023-03-31T05:56:04.096Z,11.40
2023-03-31T05:58:31.880Z,11.40
2023-03-31T06:01:08.427Z,11.40
2023-03-31T06:03:43.790Z,11.40
2023-03-31T06:06:15.108Z,11.40
2023-03-31T06:08:43.918Z,11.50
2023-03-31T06:11:14.268Z,11.50
2023-03-31T06:13:42.131Z,11.50
2023-03-31T06:16:12.178Z,11.60
2023-03-31T06:18:40.508Z,11.70
2023-03-31T06:21:08.780Z,11.70
2023-03-31T06:23:36.582Z,11.70
2023-03-31T06:26:08.201Z,11.70
2023-03-31T06:28:36.276Z,11.70
2023-03-31T06:31:12.762Z,11.80
2023-03-31T06:33:41.766Z,11.80
2023-03-31T06:36:10.618Z,11.70
2023-03-31T06:38:38.679Z,11.80
2023-03-31T06:41:07.796Z,11.80
2023-03-31T06:43:35.910Z,11.80
2023-03-31T06:46:03.691Z,11.70
2023-03-31T06:48:31.428Z,11.80
2023-03-31T06:51:03.857Z,11.90
2023-03-31T06:53:31.347Z,11.90
2023-03-31T06:55:59.210Z,11.90
2023-03-31T06:58:29.019Z,11.90
2023-03-31T07:00:58.462Z,11.90
2023-03-31T07:03:26.026Z,11.80
2023-03-31T07:05:54.763Z,11.90
2023-03-31T07:08:23.019Z,12.00
2023-03-31T07:10:58.277Z,12.00
2023-03-31T07:13:26.585Z,12.00
2023-03-31T07:15:54.635Z,12.10
2023-03-31T07:18:26.312Z,12.10
2023-03-31T07:20:53.923Z,12.20
2023-03-31T07:23:21.412Z,12.30
2023-03-31T07:25:49.637Z,12.40
2023-03-31T07:28:18.588Z,12.40
2023-03-31T07:30:46.009Z,12.30
2023-03-31T07:33:13.672Z,12.20
2023-03-31T07:35:41.572Z,12.20
2023-03-31T07:38:11.030Z,12.20
2023-03-31T07:40:39.322Z,12.30
2023-03-31T07:43:07.528Z,12.40
2023-03-31T07:45:35.796Z,12.40
2023-03-31T07:48:03.599Z,12.40
2023-03-31T07:50:31.312Z,12.40
2023-03-31T07:53:00.657Z,12.40
2023-03-31T07:55:28.070Z,12.40
2023-03-31T07:57:55.784Z,12.30
2023-03-31T08:00:23.723Z,12.40
2023-03-31T08:02:51.521Z,12.50
2023-03-31T08:05:20.899Z,12.60
2023-03-31T08:07:50.056Z,12.50
2023-03-31T08:10:21.686Z,12.60
2023-03-31T08:12:49.319Z,12.60
2023-03-31T08:15:17.262Z,12.60
2023-03-31T08:17:44.892Z,12.60
2023-03-31T08:20:12.690Z,12.70
2023-03-31T08:22:40.550Z,12.80
2023-03-31T08:25:08.578Z,12.80
2023-03-31T08:27:38.224Z,12.90
2023-03-31T08:30:07.942Z,13.00
2023-03-31T08:32:36.488Z,13.00
2023-03-31T08:35:04.337Z,13.00
2023-03-31T08:37:32.376Z,13.10
2023-03-31T08:40:00.445Z,13.30
2023-03-31T08:42:30.737Z,13.40
2023-03-31T08:45:06.923Z,13.40
2023-03-31T08:47:37.083Z,13.40
2023-03-31T08:50:14.122Z,13.40
2023-03-31T08:53:06.474Z,13.50
2023-03-31T08:55:52.280Z,13.40
2023-03-31T08:58:39.527Z,13.50
2023-03-31T09:01:44.151Z,13.60
2023-03-31T09:04:38.464Z,13.60
2023-03-31T09:07:20.754Z,13.40
2023-03-31T09:10:11.309Z,13.20
2023-03-31T09:13:09.639Z,13.20
2023-03-31T09:15:46.391Z,13.10
2023-03-31T09:18:35.868Z,13.20
2023-03-31T09:21:30.790Z,13.20
2023-03-31T09:24:20.777Z,13.20
2023-03-31T09:27:14.939Z,13.30
2023-03-31T09:29:56.513Z,13.40
2023-03-31T09:32:28.557Z,13.40
2023-03-31T09:35:03.175Z,13.40
2023-03-31T09:37:33.269Z,13.50
2023-03-31T09:40:07.477Z,13.80
2023-03-31T09:42:36.653Z,13.90
2023-03-31T09:45:04.758Z,14.00
2023-03-31T09:47:47.366Z,14.00
2023-03-31T09:50:16.353Z,14.00
2023-03-31T09:52:50.475Z,14.10
2023-03-31T09:55:39.771Z,14.10
2023-03-31T09:58:13.158Z,14.30
2023-03-31T10:01:01.798Z,14.30
2023-03-31T10:03:36.581Z,14.20
2023-03-31T10:06:11.359Z,14.30
2023-03-31T10:08:47.799Z,14.60
2023-03-31T10:11:15.507Z,14.70
2023-03-31T10:13:45.929Z,14.60
2023-03-31T10:16:31.527Z,14.60
2023-03-31T10:19:26.679Z,14.80
2023-03-31T10:22:16.083Z,15.00
2023-03-31T10:24:45.490Z,15.20
2023-03-31T10:27:21.930Z,15.60
2023-03-31T10:29:56.599Z,15.80
2023-03-31T10:32:34.205Z,16.10
2023-03-31T10:35:08.063Z,16.30
2023-03-31T10:37:36.800Z,17.00
2023-03-31T10:40:19.536Z,17.30
2023-03-31T10:42:50.427Z,17.10
2023-03-31T10:45:29.672Z,16.80
2023-03-31T10:48:03.794Z,16.90
2023-03-31T10:50:36.578Z,16.80
2023-03-31T10:53:13.133Z,17.00
2023-03-31T10:56:15.132Z,17.20
2023-03-31T10:59:14.026Z,17.30
2023-03-31T11:02:05.735Z,17.20
2023-03-31T11:04:52.771Z,17.60
2023-03-31T11:07:22.872Z,18.00
2023-03-31T11:10:22.226Z,18.10
2023-03-31T11:13:14.533Z,18.30
2023-03-31T11:16:14.648Z,18.40
2023-03-31T11:18:48.054Z,18.40
2023-03-31T11:21:34.457Z,18.30
2023-03-31T11:24:22.934Z,18.60
2023-03-31T11:27:16.642Z,18.70
2023-03-31T11:30:13.280Z,18.40
2023-03-31T11:33:04.809Z,18.70
2023-03-31T11:35:57.039Z,19.00
2023-03-31T11:38:50.694Z,18.80
2023-03-31T11:41:22.812Z,18.40
2023-03-31T11:43:54.662Z,18.00
2023-03-31T11:46:24.012Z,18.00
2023-03-31T11:49:15.536Z,18.20
2023-03-31T11:52:02.774Z,18.40
2023-03-31T11:54:42.165Z,18.70
2023-03-31T11:57:33.394Z,18.70
2023-03-31T12:00:07.667Z,18.70
2023-03-31T12:02:43.455Z,18.70
2023-03-31T12:05:13.695Z,18.50
2023-03-31T12:08:03.162Z,18.50
2023-03-31T12:10:36.610Z,18.50
2023-03-31T12:13:15.852Z,18.30
2023-03-31T12:15:51.353Z,18.30
2023-03-31T12:18:25.052Z,18.60
2023-03-31T12:21:04.492Z,18.80
2023-03-31T12:23:38.967Z,19.00
2023-03-31T12:26:25.030Z,19.40
2023-03-31T12:28:58.298Z,19.60
2023-03-31T12:31:27.928Z,19.60
2023-03-31T12:34:08.741Z,19.70
2023-03-31T12:36:39.124Z,19.60
2023-03-31T12:39:30.751Z,19.50
2023-03-31T12:42:24.157Z,19.40
2023-03-31T12:45:01.202Z,19.10
2023-03-31T12:47:42.250Z,18.90
2023-03-31T12:50:47.041Z,18.80
2023-03-31T12:53:19.932Z,18.30
2023-03-31T12:55:54.236Z,18.00
2023-03-31T12:58:33.127Z,18.00
2023-03-31T13:01:07.205Z,17.90
2023-03-31T13:03:48.698Z,17.70
2023-03-31T13:06:28.095Z,17.60
2023-03-31T13:09:05.759Z,17.60
2023-03-31T13:11:36.522Z,17.60
2023-03-31T13:14:21.980Z,17.70
2023-03-31T13:16:56.505Z,17.80
2023-03-31T13:19:35.863Z,17.90
2023-03-31T13:22:06.159Z,18.20
2023-03-31T13:24:34.978Z,18.30
2023-03-31T13:27:29.824Z,18.60
2023-03-31T13:29:57.192Z,18.70
2023-03-31T13:32:28.581Z,18.80
2023-03-31T13:35:10.540Z,18.90
2023-03-31T13:37:46.799Z,18.80
2023-03-31T13:40:47.264Z,18.70
2023-03-31T13:43:51.422Z,18.60
2023-03-31T13:46:30.484Z,18.50
2023-03-31T13:49:30.368Z,18.40
2023-03-31T13:52:01.230Z,18.40
2023-03-31T13:54:34.694Z,18.10
2023-03-31T13:57:29.813Z,18.20
2023-03-31T14:00:20.608Z,18.20
2023-03-31T14:03:12.584Z,18.10
2023-03-31T14:05:45.190Z,18.20
2023-03-31T14:08:31.416Z,18.20
2023-03-31T14:11:17.044Z,18.10
2023-03-31T14:13:44.448Z,18.00
2023-03-31T14:16:14.206Z,17.80
2023-03-31T14:18:49.229Z,17.80
2023-03-31T14:21:32.032Z,17.70
2023-03-31T14:24:14.885Z,17.70
2023-03-31T14:27:25.734Z,17.60
2023-03-31T14:30:00.904Z,17.50
2023-03-31T14:32:38.826Z,17.50
2023-03-31T14:35:23.742Z,17.40
2023-03-31T14:37:51.194Z,17.40
2023-03-31T14:40:19.015Z,17.30
2023-03-31T14:42:50.052Z,17.40
2023-03-31T14:45:17.456Z,17.40
2023-03-31T14:48:16.519Z,17.30
2023-03-31T14:50:46.521Z,17.20
2023-03-31T14:53:18.225Z,17.00
2023-03-31T14:55:58.139Z,16.90
2023-03-31T14:58:35.022Z,16.90
2023-03-31T15:01:07.043Z,16.90
2023-03-31T15:03:38.697Z,16.90
2023-03-31T15:06:06.433Z,17.00
2023-03-31T15:08:37.415Z,17.00
2023-03-31T15:11:19.460Z,16.90
2023-03-31T15:14:03.594Z,16.60
2023-03-31T15:16:35.584Z,16.60
2023-03-31T15:19:11.796Z,16.60
2023-03-31T15:21:39.281Z,16.60
2023-03-31T15:24:07.922Z,16.60
2023-03-31T15:26:41.539Z,16.50
2023-03-31T15:29:17.597Z,16.50
2023-03-31T15:31:45.484Z,16.40
2023-03-31T15:34:37.017Z,16.40
2023-03-31T15:37:07.801Z,16.20
2023-03-31T15:39:37.313Z,16.10
2023-03-31T15:42:07.354Z,16.10
2023-03-31T15:45:16.118Z,16.00
2023-03-31T15:47:54.313Z,16.00
2023-03-31T15:50:24.366Z,15.90
2023-03-31T15:52:54.502Z,15.90
2023-03-31T15:55:41.185Z,15.90
2023-03-31T15:58:15.785Z,15.90
2023-03-31T16:00:54.430Z,15.90
2023-03-31T16:03:28.847Z,15.90
2023-03-31T16:05:58.510Z,15.90
2023-03-31T16:08:33.326Z,15.90
2023-03-31T16:11:08.636Z,15.80
2023-03-31T16:13:39.979Z,15.80
2023-03-31T16:16:20.172Z,15.80
2023-03-31T16:18:51.136Z,15.80
2023-03-31T16:21:44.576Z,15.80
2023-03-31T16:24:11.997Z,15.80
2023-03-31T16:26:39.503Z,15.70
2023-03-31T16:29:07.421Z,15.70
2023-03-31T16:31:34.837Z,15.70
2023-03-31T16:34:04.760Z,15.60
2023-03-31T16:39:21.262Z,15.60
2023-03-31T16:41:48.637Z,15.60
2023-03-31T16:44:16.212Z,15.60
2023-03-31T16:46:43.655Z,15.60
2023-03-31T16:49:11.097Z,15.60
2023-03-31T16:51:38.455Z,15.50
2023-03-31T16:54:05.940Z,15.50
2023-03-31T16:56:33.314Z,15.50
2023-03-31T16:59:01.719Z,15.50
2023-03-31T17:01:29.232Z,15.50
2023-03-31T17:03:59.154Z,15.50
2023-03-31T17:06:26.696Z,15.40
2023-03-31T17:08:54.086Z,15.40
2023-03-31T17:11:21.587Z,15.30
2023-03-31T17:13:49.893Z,14.70
2023-03-31T17:16:24.339Z,14.30
2023-03-31T17:18:57.037Z,14.00
2023-03-31T17:21:24.636Z,13.80
2023-03-31T17:23:52.320Z,13.60
2023-03-31T17:26:19.722Z,13.50
2023-03-31T17:28:47.239Z,13.40
2023-03-31T17:31:21.895Z,13.40
2023-03-31T17:33:49.361Z,13.30
2023-03-31T17:36:16.936Z,13.20
2023-03-31T17:38:44.908Z,13.20
2023-03-31T17:41:13.793Z,13.10
2023-03-31T17:43:45.096Z,13.20
2023-03-31T17:46:14.182Z,13.10
2023-03-31T17:48:42.191Z,13.00
2023-03-31T17:51:13.798Z,12.90
2023-03-31T17:53:42.849Z,12.80
2023-03-31T17:56:11.108Z,12.80
2023-03-31T17:58:38.534Z,12.70
2023-03-31T18:01:07.740Z,12.60
2023-03-31T18:03:35.641Z,12.60
2023-03-31T18:06:08.609Z,12.60
2023-03-31T18:08:36.229Z,12.60
2023-03-31T18:11:05.292Z,12.60
2023-03-31T18:13:34.801Z,12.60
2023-03-31T18:16:02.983Z,12.60
2023-03-31T18:18:36.710Z,12.60
2023-03-31T18:21:10.723Z,12.50
2023-03-31T18:23:39.330Z,12.40
2023-03-31T18:26:08.446Z,12.40
2023-03-31T18:28:36.089Z,12.40
2023-03-31T18:31:10.745Z,12.40
2023-03-31T18:33:39.454Z,12.40
2023-03-31T18:36:07.842Z,12.40
2023-03-31T18:38:37.016Z,12.60
2023-03-31T18:41:05.135Z,12.60
2023-03-31T18:43:33.361Z,12.50
2023-03-31T18:46:01.822Z,12.40
2023-03-31T18:48:29.547Z,12.30
2023-03-31T18:50:57.506Z,12.30
2023-03-31T18:53:25.363Z,12.20
2023-03-31T18:55:54.990Z,12.20
2023-03-31T18:58:23.171Z,12.20
2023-03-31T19:00:51.060Z,12.20
2023-03-31T19:03:19.211Z,12.20
2023-03-31T19:05:47.245Z,12.10
2023-03-31T19:08:14.629Z,12.10
2023-03-31T19:10:42.138Z,12.10
2023-03-31T19:13:14.715Z,12.00
2023-03-31T19:15:42.282Z,12.10
2023-03-31T19:18:14.289Z,12.10
2023-03-31T19:20:47.069Z,12.10
2023-03-31T19:23:14.543Z,12.10
2023-03-31T19:25:41.925Z,12.00
2023-03-31T19:28:09.476Z,11.90
2023-03-31T19:30:36.911Z,11.90
2023-03-31T19:33:04.508Z,12.00
2023-03-31T19:35:32.109Z,11.90
2023-03-31T19:37:59.642Z,11.90
2023-03-31T19:40:27.967Z,11.80
2023-03-31T19:42:55.543Z,11.80
2023-03-31T19:45:22.928Z,11.80
2023-03-31T19:47:50.526Z,11.70
2023-03-31T19:50:17.959Z,11.80
2023-03-31T19:52:46.841Z,11.80
2023-03-31T19:55:16.846Z,11.80
2023-03-31T19:57:44.196Z,11.70
2023-03-31T20:00:12.533Z,11.60
2023-03-31T20:02:40.068Z,11.40
2023-03-31T20:05:08.019Z,11.30
2023-03-31T20:07:35.382Z,11.30
2023-03-31T20:10:02.859Z,11.30
2023-03-31T20:12:30.333Z,11.30
2023-03-31T20:14:57.679Z,11.30
2023-03-31T20:17:25.148Z,11.40
2023-03-31T20:19:52.497Z,11.30
2023-03-31T20:22:19.956Z,11.30
2023-03-31T20:24:47.310Z,11.30
2023-03-31T20:27:14.707Z,11.30
2023-03-31T20:29:42.065Z,11.30
2023-03-31T20:32:09.858Z,11.20
2023-03-31T20:34:37.432Z,11.20
2023-03-31T20:37:04.791Z,11.20
2023-03-31T20:39:32.260Z,11.20
2023-03-31T20:41:59.599Z,11.10
2023-03-31T20:44:27.018Z,11.20
2023-03-31T20:46:56.005Z,11.20
2023-03-31T20:49:23.430Z,11.20
2023-03-31T20:51:50.996Z,11.10
2023-03-31T20:54:18.533Z,11.00
2023-03-31T20:56:47.161Z,11.10
2023-03-31T20:59:15.867Z,11.10
2023-03-31T21:01:45.279Z,11.10
2023-03-31T21:04:13.271Z,11.10
2023-03-31T21:06:43.107Z,11.10
2023-03-31T21:09:12.311Z,11.00
2023-03-31T21:11:40.769Z,11.00
2023-03-31T21:14:12.557Z,11.00
2023-03-31T21:16:40.345Z,11.10
2023-03-31T21:19:07.759Z,11.00
2023-03-31T21:21:36.222Z,11.00
2023-03-31T21:24:03.998Z,10.90
2023-03-31T21:26:31.394Z,10.80
2023-03-31T21:28:58.797Z,10.90
2023-03-31T21:31:27.191Z,10.90
2023-03-31T21:33:57.540Z,10.90
2023-03-31T21:36:25.584Z,10.90
2023-03-31T21:38:54.034Z,11.00
2023-03-31T21:41:27.993Z,11.00
2023-03-31T21:43:56.545Z,11.00
2023-03-31T21:46:27.451Z,11.00
2023-03-31T21:48:56.454Z,11.00
2023-03-31T21:51:25.210Z,11.00
2023-03-31T21:53:55.397Z,10.80
2023-03-31T21:56:24.808Z,10.80
2023-03-31T21:58:52.673Z,10.70
2023-03-31T22:01:21.626Z,10.60
2023-03-31T22:03:50.094Z,10.60
2023-03-31T22:06:17.822Z,10.60
2023-03-31T22:08:45.667Z,10.40
2023-03-31T22:11:13.649Z,10.30
2023-03-31T22:13:41.615Z,10.30
2023-03-31T22:16:18.971Z,10.30
2023-03-31T22:18:47.642Z,10.30
2023-03-31T22:21:26.252Z,10.20
2023-03-31T22:23:55.923Z,10.20
2023-03-31T22:26:24.301Z,10.20
2023-03-31T22:28:52.108Z,10.20
2023-03-31T22:31:19.695Z,10.10
2023-03-31T22:33:47.464Z,10.10
2023-03-31T22:36:15.749Z,10.10
2023-03-31T22:38:43.250Z,10.10
2023-03-31T22:41:10.748Z,10.10
2023-03-31T22:43:38.140Z,10.10
2023-03-31T22:46:07.187Z,10.10
2023-03-31T22:48:34.629Z,10.00
2023-03-31T22:51:04.915Z,10.10
2023-03-31T22:53:33.123Z,10.00
2023-03-31T22:56:10.565Z,10.00
2023-03-31T22:58:38.488Z,10.00
2023-03-31T23:01:06.975Z,10.10
2023-03-31T23:03:35.431Z,10.20
2023-03-31T23:06:05.189Z,10.20
2023-03-31T23:08:33.704Z,10.30
2023-03-31T23:11:02.996Z,10.20
2023-03-31T23:13:30.883Z,10.20
2023-03-31T23:16:22.469Z,10.10
2023-03-31T23:18:51.789Z,10.00
2023-03-31T23:21:22.562Z,9.90
2023-03-31T23:23:55.540Z,9.90
2023-03-31T23:26:24.966Z,9.80
2023-03-31T23:28:53.037Z,9.90
2023-03-31T23:31:23.212Z,10.00
2023-03-31T23:33:50.813Z,10.00
2023-03-31T23:36:20.924Z,10.00
2023-03-31T23:38:50.657Z,10.00
2023-03-31T23:41:19.453Z,9.90
2023-03-31T23:43:47.158Z,9.90
2023-03-31T23:46:14.631Z,9.80
2023-03-31T23:48:42.123Z,9.80
2023-03-31T23:51:10.097Z,9.90
2023-03-31T23:53:37.474Z,9.90
2023-03-31T23:56:10.518Z,9.80
2023-03-31T23:58:40.236Z,9.80
